• Join FlightAware (Why Join?)
  • Login
  • US Flag 
11:22AM EDT


 

Airport Tracker/Info


-or-


 

Live Flight TrackerFlight Track Log ✈ DAL6115 ✈ 22-Apr-2013 ✈ KJFK - KROC

Flight Track Log - Related Links

Times and Time Zones

All times are in EDT time to prevent confusion due to time zone crossing. See the DAL6115 flight status page for this flight to view local times or setup timezone preferences in your user account.

Time Position Orientation Groundspeed Altitude Reporting Facility
EDT Latitude Longitude Course Direction KTS MPH feet Rate Location/Type
09:47AM 40.6333 -73.7500 315° West 180 207 2,600  Level New York TRACON
09:48AM 40.6333 -73.6667 90° East 206 237 5,200 2,700 Climbing New York TRACON
09:49AM 40.6667 -73.6167 49° Northeast 255 293 8,100 2,520 Climbing New York TRACON
09:50AM 40.8968 -74.1401 315° West  Level FlightAware Approximate
09:50AM 40.7500 -73.5667 24° Northeast 279 321 10,300  Level New York TRACON
09:51AM 40.9668 -74.2311 316° Northwest  Level FlightAware Approximate
09:51AM 40.8167 -73.5333 21° North 311 358 11,900  Level New York TRACON
09:52AM 41.0376 -74.3210 323° Northwest  Level FlightAware Approximate
09:52AM 40.8833 -73.5667 339° North 325 374 13,800  Level New York TRACON
09:53AM 41.1102 -74.4081 315° West  Level FlightAware Approximate
09:54AM 40.9842 -73.7672 304° West 348 400 17,100  Level New York Center
09:55AM 41.0244 -73.8956 293° West 364 419 17,000 -60 Descending New York Center
09:56AM 41.0644 -74.0322 291° West 397 457 17,000  Level New York Center
09:57AM 41.0986 -74.1494 291° West 391 450 17,000  Level New York Center
09:58AM 41.1425 -74.2922 292° West 385 443 17,000 300 Level New York Center
09:59AM 41.1783 -74.4097 292° West 379 436 17,600 780 Climbing New York Center
10:00AM 41.2200 -74.5472 292° West 373 429 18,600 1,020 Climbing New York Center
10:01AM 41.2667 -74.6464 302° West 361 415 19,700 1,380 Climbing New York Center
10:02AM 41.3378 -74.7611 310° West 377 434 21,400 1,140 Climbing New York Center
10:03AM 41.4069 -74.8731 310° West 390 449 22,000 300 Climbing New York Center
10:04AM 41.4797 -74.9936 309° West 407 468 22,000  Level New York Center
10:05AM 41.5564 -75.1178 310° West 419 482 22,000  Level New York Center
10:06AM 41.6033 -75.2594 294° West 424 488 22,000  Level New York Center
10:07AM 41.6456 -75.4039 291° West 418 481 22,000  Level New York Center
10:08AM 41.6875 -75.5511 291° West 423 487 22,000  Level New York Center
10:09AM 41.7275 -75.6986 290° West 423 487 22,000  Level New York Center
10:10AM 41.7692 -75.8436 291° West 423 487 22,000  Level New York Center
10:11AM 41.8108 -75.9886 291° West 423 487 22,000  Level New York Center
10:12AM 41.8522 -76.1367 291° West 418 481 22,000 -600 Level New York Center
10:13AM 41.8933 -76.2822 291° West 418 481 20,800 -2,040 Descending New York Center
10:14AM 41.9306 -76.4217 290° West 413 475 18,000 -2,100 Descending New York Center
10:15AM 41.9697 -76.5619 291° West 407 468 16,700 -1,020 Descending New York Center
10:16AM 42.0044 -76.6989 289° West 401 461 16,000 -360 Descending New York Center
10:17AM 42.0467 -76.8506 291° West 395 455 16,000  Level New York Center
10:18AM 42.1144 -76.9944 302° West 385 443 16,000 -540 Level Cleveland Center
10:19AM 42.2197 -77.0222 349° North 357 411 14,900 -1,020 Descending Cleveland Center
10:20AM 42.3258 -77.0161 North 352 405 14,000 -480 Descending Cleveland Center
10:21AM 42.4319 -77.0075 North 362 417 14,000 -60 Level Cleveland Center
10:22AM 42.5408 -77.0208 355° North 374 430 13,900 -600 Descending Cleveland Center
10:23AM 42.5772 -77.0556 325° Northwest 389 448 13,200 -1,560 Descending Cleveland Center
10:23AM 42.6161 -77.0986 321° Northwest 389 448 12,500 -1,320 Descending Cleveland Center
10:24AM 42.7067 -77.1981 321° Northwest 369 425 11,100 -900 Descending Cleveland Center
10:25AM 42.7917 -77.2531 335° Northwest 335 386 10,700 -1,080 Descending Cleveland Center
10:26AM 42.8864 -77.2847 346° North 289 333 8,800 -1,680 Descending Cleveland Center
10:27AM 42.9433 -77.3100 342° North 301 346 7,300 -1,800 Descending Cleveland Center
10:28AM 42.9994 -77.3781 318° Northwest 274 315 5,500 -2,160 Descending Cleveland Center
10:29AM 43.0706 -77.4625 319° Northwest 279 321 2,900 -2,460 Descending Cleveland Center